createdAt,value
2019-03-28T00:00:53.952Z,85.80
2019-03-28T00:02:33.313Z,85.89
2019-03-28T00:04:10.826Z,85.92
2019-03-28T00:05:56.315Z,85.80
2019-03-28T00:07:35.386Z,85.76
2019-03-28T00:09:14.828Z,85.87
2019-03-28T00:10:53.432Z,85.96
2019-03-28T00:12:31.579Z,85.81
2019-03-28T00:14:09.618Z,85.73
2019-03-28T00:15:50.452Z,85.73
2019-03-28T00:17:36.399Z,85.54
2019-03-28T00:19:16.583Z,85.46
2019-03-28T00:20:57.055Z,85.14
2019-03-28T00:22:44.986Z,85.28
2019-03-28T00:24:39.619Z,85.27
2019-03-28T00:26:30.075Z,84.92
2019-03-28T00:28:02.670Z,85.15
2019-03-28T00:29:41.882Z,85.15
2019-03-28T00:31:23.168Z,85.09
2019-03-28T00:33:03.881Z,85.07
2019-03-28T00:34:46.761Z,85.01
2019-03-28T00:36:27.983Z,84.60
2019-03-28T00:38:06.630Z,84.91
2019-03-28T00:39:45.449Z,84.77
2019-03-28T00:41:22.009Z,84.91
2019-03-28T00:43:03.365Z,84.68
2019-03-28T00:44:42.594Z,84.90
2019-03-28T00:46:33.864Z,84.80
2019-03-28T00:48:14.764Z,84.67
2019-03-28T00:49:54.851Z,84.35
2019-03-28T00:51:34.934Z,84.45
2019-03-28T00:53:17.366Z,84.29
2019-03-28T00:55:00.789Z,84.20
2019-03-28T00:56:46.741Z,84.22
2019-03-28T00:58:23.129Z,84.17
2019-03-28T01:00:16.211Z,83.76
2019-03-28T01:01:58.178Z,83.98
2019-03-28T01:03:40.659Z,83.71
2019-03-28T01:05:20.009Z,83.77
2019-03-28T01:07:10.668Z,83.49
2019-03-28T01:08:58.168Z,83.88
2019-03-28T01:10:37.462Z,83.83
2019-03-28T01:12:19.939Z,83.73
2019-03-28T01:14:00.227Z,83.34
2019-03-28T01:15:39.998Z,83.58
2019-03-28T01:17:18.034Z,83.37
2019-03-28T01:18:58.077Z,83.59
2019-03-28T01:20:35.606Z,83.48
2019-03-28T01:22:12.634Z,83.47
2019-03-28T01:23:50.429Z,83.79
2019-03-28T01:25:30.853Z,83.99
2019-03-28T01:27:13.938Z,84.00
2019-03-28T01:28:59.256Z,84.16
2019-03-28T01:30:39.748Z,84.01
2019-03-28T01:32:17.980Z,83.75
2019-03-28T01:33:55.521Z,83.74
2019-03-28T01:35:33.846Z,83.84
2019-03-28T01:37:12.794Z,83.97
2019-03-28T01:38:52.717Z,84.14
2019-03-28T01:40:30.026Z,84.13
2019-03-28T01:42:09.483Z,84.00
2019-03-28T01:43:50.873Z,84.17
2019-03-28T01:45:30.160Z,83.92
2019-03-28T01:47:07.168Z,83.59
2019-03-28T01:48:44.786Z,83.77
2019-03-28T01:50:31.139Z,84.06
2019-03-28T01:52:14.279Z,84.28
2019-03-28T01:53:53.172Z,84.18
2019-03-28T01:55:32.145Z,83.95
2019-03-28T01:57:13.065Z,83.91
2019-03-28T01:58:52.902Z,83.88
2019-03-28T02:00:29.598Z,84.22
2019-03-28T02:02:06.402Z,84.02
2019-03-28T02:03:47.332Z,83.81
2019-03-28T02:05:24.621Z,83.96
2019-03-28T02:07:03.432Z,84.27
2019-03-28T02:08:41.396Z,84.23
2019-03-28T02:10:21.595Z,84.47
2019-03-28T02:12:00.132Z,84.47
2019-03-28T02:13:37.092Z,84.12
2019-03-28T02:15:33.920Z,83.70
2019-03-28T02:17:10.987Z,83.71
2019-03-28T02:18:47.781Z,83.88
2019-03-28T02:20:26.357Z,84.00
2019-03-28T02:22:05.076Z,84.08
2019-03-28T02:23:42.610Z,84.66
2019-03-28T02:25:19.481Z,84.66
2019-03-28T02:26:58.785Z,84.25
2019-03-28T02:28:52.711Z,84.34
2019-03-28T02:30:32.241Z,83.79
2019-03-28T02:32:09.535Z,83.50
2019-03-28T02:33:50.430Z,84.07
2019-03-28T02:35:28.677Z,84.09
2019-03-28T02:37:05.870Z,84.62
2019-03-28T02:38:42.472Z,84.66
2019-03-28T02:40:25.757Z,84.88
2019-03-28T02:42:04.474Z,84.78
2019-03-28T02:43:41.442Z,84.78
2019-03-28T02:45:21.885Z,84.63
2019-03-28T02:47:00.771Z,84.60
2019-03-28T02:48:39.414Z,84.54
2019-03-28T02:50:18.086Z,84.49
2019-03-28T02:51:56.012Z,84.47
2019-03-28T02:53:33.906Z,84.74
2019-03-28T02:55:13.253Z,84.61
2019-03-28T02:56:50.414Z,84.65
2019-03-28T02:58:32.547Z,84.69
2019-03-28T03:00:11.012Z,84.23
2019-03-28T03:01:54.347Z,84.24
2019-03-28T03:03:32.057Z,83.81
2019-03-28T03:05:12.850Z,84.02
2019-03-28T03:06:50.116Z,83.89
2019-03-28T03:08:27.159Z,83.69
2019-03-28T03:10:07.369Z,83.86
2019-03-28T03:11:44.653Z,83.86
2019-03-28T03:13:23.399Z,83.77
2019-03-28T03:15:00.815Z,83.94
2019-03-28T03:16:38.037Z,83.73
2019-03-28T03:18:21.162Z,83.97
2019-03-28T03:19:56.941Z,83.94
2019-03-28T03:21:36.096Z,83.90
2019-03-28T03:23:13.981Z,83.74
2019-03-28T03:24:51.799Z,83.48
2019-03-28T03:26:30.349Z,83.26
2019-03-28T03:28:09.190Z,83.16
2019-03-28T03:29:49.442Z,83.19
2019-03-28T03:31:28.043Z,83.49
2019-03-28T03:33:05.283Z,83.30
2019-03-28T03:34:43.525Z,83.37
2019-03-28T03:36:20.222Z,83.21
2019-03-28T03:37:59.626Z,83.00
2019-03-28T03:39:39.873Z,83.13
2019-03-28T03:41:20.022Z,83.64
2019-03-28T03:42:58.075Z,83.46
2019-03-28T03:44:48.321Z,83.46
2019-03-28T03:46:26.184Z,83.32
2019-03-28T03:48:03.503Z,83.10
2019-03-28T03:49:41.446Z,83.65
2019-03-28T03:51:19.490Z,83.50
2019-03-28T03:53:02.505Z,83.88
2019-03-28T03:54:42.682Z,83.98
2019-03-28T03:56:20.479Z,84.04
2019-03-28T03:58:14.509Z,84.33
2019-03-28T03:59:39.035Z,84.11
2019-03-28T04:01:18.666Z,83.69
2019-03-28T04:02:58.227Z,83.82
2019-03-28T04:04:39.072Z,83.75
2019-03-28T04:06:25.298Z,83.51
2019-03-28T04:08:14.718Z,83.38
2019-03-28T04:09:53.251Z,82.27
2019-03-28T04:11:29.868Z,81.91
2019-03-28T04:13:09.058Z,81.75
2019-03-28T04:14:45.865Z,81.35
2019-03-28T04:16:22.723Z,81.78
2019-03-28T04:18:00.703Z,81.30
2019-03-28T04:19:37.566Z,81.49
2019-03-28T04:21:17.706Z,80.97
2019-03-28T04:22:56.194Z,80.56
2019-03-28T04:24:53.340Z,80.29
2019-03-28T04:26:48.577Z,80.32
2019-03-28T04:28:32.171Z,81.06
2019-03-28T04:30:15.538Z,80.48
2019-03-28T04:31:52.865Z,80.50
2019-03-28T04:33:30.544Z,79.62
2019-03-28T04:35:07.590Z,79.53
2019-03-28T04:36:45.180Z,79.54
2019-03-28T04:38:22.979Z,78.78
2019-03-28T04:40:00.767Z,78.71
2019-03-28T04:41:42.808Z,78.58
2019-03-28T04:43:20.262Z,78.56
2019-03-28T04:44:57.325Z,78.62
2019-03-28T04:46:34.264Z,79.02
2019-03-28T04:48:11.569Z,78.34
2019-03-28T04:49:49.445Z,77.75
2019-03-28T04:51:26.886Z,77.15
2019-03-28T04:53:09.357Z,77.53
2019-03-28T04:54:56.241Z,77.50
2019-03-28T04:56:35.344Z,77.33
2019-03-28T04:58:23.291Z,77.47
2019-03-28T05:00:03.386Z,78.10
2019-03-28T05:01:42.016Z,78.54
2019-03-28T05:03:30.755Z,78.17
2019-03-28T05:05:09.179Z,78.81
2019-03-28T05:06:46.860Z,78.07
2019-03-28T05:08:39.264Z,78.32
2019-03-28T05:10:26.504Z,77.81
2019-03-28T05:12:06.022Z,78.98
2019-03-28T05:13:43.154Z,78.23
2019-03-28T05:15:20.506Z,77.41
2019-03-28T05:16:57.520Z,76.83
2019-03-28T05:18:35.393Z,77.22
2019-03-28T05:20:13.816Z,77.43
2019-03-28T05:21:50.710Z,76.23
2019-03-28T05:23:28.819Z,76.60
2019-03-28T05:25:06.679Z,76.31
2019-03-28T05:26:44.353Z,76.87
2019-03-28T05:28:23.483Z,76.62
2019-03-28T05:30:08.602Z,77.13
2019-03-28T05:31:56.434Z,76.25
2019-03-28T05:33:36.038Z,76.03
2019-03-28T05:35:13.817Z,76.97
2019-03-28T05:36:52.306Z,76.48
2019-03-28T05:38:30.460Z,76.11
2019-03-28T05:40:08.177Z,75.66
2019-03-28T05:41:46.912Z,76.20
2019-03-28T05:43:26.254Z,76.09
2019-03-28T05:45:12.538Z,76.02
2019-03-28T05:46:49.568Z,77.13
2019-03-28T05:48:29.648Z,77.81
2019-03-28T05:50:09.309Z,77.27
2019-03-28T05:51:47.060Z,78.77
2019-03-28T05:53:24.832Z,77.38
2019-03-28T05:55:05.004Z,76.45
2019-03-28T05:56:49.872Z,77.95
2019-03-28T05:58:29.155Z,77.00
2019-03-28T06:00:07.827Z,76.34
2019-03-28T06:01:46.408Z,76.37
2019-03-28T06:03:25.704Z,77.19
2019-03-28T06:05:06.601Z,78.33
2019-03-28T06:06:51.884Z,79.42
2019-03-28T06:08:30.954Z,79.80
2019-03-28T06:10:12.545Z,80.48
2019-03-28T06:11:53.077Z,81.70
2019-03-28T06:13:34.958Z,82.84
2019-03-28T06:15:24.520Z,82.34
2019-03-28T06:17:05.060Z,84.05
2019-03-28T06:18:44.855Z,83.99
2019-03-28T06:20:24.130Z,84.19
2019-03-28T06:22:07.635Z,85.22
2019-03-28T06:23:51.488Z,85.90
2019-03-28T06:25:33.774Z,86.61
2019-03-28T06:27:11.847Z,87.10
2019-03-28T06:28:51.431Z,87.20
2019-03-28T06:30:30.429Z,86.96
2019-03-28T06:32:14.407Z,87.31
2019-03-28T06:33:57.527Z,87.08
2019-03-28T06:35:38.698Z,86.78
2019-03-28T06:37:18.483Z,85.52
2019-03-28T06:38:59.411Z,85.58
2019-03-28T06:40:43.784Z,86.33
2019-03-28T06:42:21.405Z,85.51
2019-03-28T06:44:03.100Z,84.68
2019-03-28T06:45:41.676Z,85.43
2019-03-28T06:47:22.087Z,85.80
2019-03-28T06:49:03.368Z,85.10
2019-03-28T06:50:42.617Z,85.99
2019-03-28T06:52:23.606Z,86.13
2019-03-28T06:54:05.128Z,86.12
2019-03-28T06:55:51.374Z,85.88
2019-03-28T06:57:39.491Z,85.79
2019-03-28T06:59:19.450Z,84.70
2019-03-28T07:01:00.149Z,84.61
2019-03-28T07:02:47.647Z,83.90
2019-03-28T07:04:32.161Z,83.24
2019-03-28T07:06:13.274Z,82.78
2019-03-28T07:07:51.167Z,81.83
2019-03-28T07:09:29.492Z,79.57
2019-03-28T07:11:08.464Z,78.82
2019-03-28T07:12:47.646Z,75.91
2019-03-28T07:14:46.159Z,74.49
2019-03-28T07:16:23.961Z,74.61
2019-03-28T07:18:01.963Z,76.45
2019-03-28T07:19:45.330Z,75.86
2019-03-28T07:21:24.794Z,75.89
2019-03-28T07:23:02.648Z,74.88
2019-03-28T07:24:40.034Z,72.82
2019-03-28T07:26:19.075Z,73.01
2019-03-28T07:27:59.981Z,74.92
2019-03-28T07:29:50.302Z,74.15
2019-03-28T07:31:19.296Z,74.20
2019-03-28T07:32:56.286Z,73.29
2019-03-28T07:34:35.044Z,73.52
2019-03-28T07:36:14.808Z,74.28
2019-03-28T07:37:56.679Z,73.94
2019-03-28T07:39:36.316Z,73.77
2019-03-28T07:41:20.877Z,71.55
2019-03-28T07:43:00.841Z,71.39
2019-03-28T07:44:39.751Z,73.90
2019-03-28T07:46:18.972Z,74.66
2019-03-28T07:47:57.633Z,73.58
2019-03-28T07:49:37.691Z,73.08
2019-03-28T07:51:21.072Z,72.56
2019-03-28T07:53:02.590Z,71.22
2019-03-28T07:54:48.757Z,70.46
2019-03-28T07:56:34.430Z,69.99
2019-03-28T07:58:13.702Z,71.29
2019-03-28T08:00:03.563Z,72.25
2019-03-28T08:01:32.671Z,70.24
2019-03-28T08:03:11.040Z,71.15
2019-03-28T08:04:49.140Z,70.79
2019-03-28T08:06:26.130Z,69.58
2019-03-28T08:08:05.008Z,67.80
2019-03-28T08:09:41.899Z,66.52
2019-03-28T08:11:22.390Z,68.95
2019-03-28T08:12:59.371Z,70.87
2019-03-28T08:14:36.712Z,71.30
2019-03-28T08:16:19.775Z,69.97
2019-03-28T08:18:11.885Z,66.88
2019-03-28T08:20:13.293Z,66.88
2019-03-28T08:21:56.352Z,68.76
2019-03-28T08:23:42.383Z,67.72
2019-03-28T08:25:21.954Z,66.77
2019-03-28T08:27:09.385Z,65.39
2019-03-28T08:28:52.524Z,67.11
2019-03-28T08:30:45.335Z,66.27
2019-03-28T08:32:39.799Z,66.00
2019-03-28T08:34:26.901Z,65.53
2019-03-28T08:36:09.838Z,66.30
2019-03-28T08:37:48.107Z,67.15
2019-03-28T08:39:36.667Z,66.15
2019-03-28T08:41:20.884Z,64.32
2019-03-28T08:42:58.301Z,65.43
2019-03-28T08:44:43.300Z,64.67
2019-03-28T08:46:23.992Z,64.79
2019-03-28T08:48:02.326Z,66.09
2019-03-28T08:49:48.649Z,66.14
2019-03-28T08:51:34.629Z,65.88
2019-03-28T08:53:13.189Z,66.61
2019-03-28T08:54:54.954Z,66.57
2019-03-28T08:56:44.481Z,66.48
2019-03-28T08:58:21.407Z,65.41
2019-03-28T08:59:58.354Z,64.12
2019-03-28T09:01:41.022Z,64.67
2019-03-28T09:03:18.279Z,64.27
2019-03-28T09:04:55.602Z,64.37
2019-03-28T09:06:38.702Z,63.04
2019-03-28T09:08:16.378Z,62.93
2019-03-28T09:09:54.165Z,61.96
2019-03-28T09:11:37.087Z,62.55
2019-03-28T09:13:22.021Z,61.79
2019-03-28T09:14:59.514Z,63.05
2019-03-28T09:16:40.656Z,61.96
2019-03-28T09:18:27.077Z,63.42
2019-03-28T09:20:08.067Z,62.77
2019-03-28T09:21:45.175Z,62.09
2019-03-28T09:23:22.345Z,62.75
2019-03-28T09:24:59.514Z,63.97
2019-03-28T09:26:36.607Z,63.19
2019-03-28T09:28:13.863Z,63.05
2019-03-28T09:29:54.700Z,62.63
2019-03-28T09:31:32.077Z,64.43
2019-03-28T09:33:09.304Z,64.03
2019-03-28T09:34:46.709Z,64.32
2019-03-28T09:36:29.900Z,63.48
2019-03-28T09:38:07.055Z,63.54
2019-03-28T09:39:47.492Z,62.72
2019-03-28T09:41:34.014Z,62.07
2019-03-28T09:43:11.708Z,61.53
2019-03-28T09:44:48.925Z,61.83
2019-03-28T09:46:31.846Z,61.32
2019-03-28T09:48:11.633Z,61.56
2019-03-28T09:49:47.634Z,62.00
2019-03-28T09:51:24.459Z,62.65
2019-03-28T09:53:01.966Z,61.64
2019-03-28T09:54:39.082Z,62.15
2019-03-28T09:56:16.621Z,60.89
2019-03-28T09:57:53.769Z,63.37
2019-03-28T09:59:31.172Z,62.47
2019-03-28T10:01:08.172Z,61.53
2019-03-28T10:02:46.200Z,62.79
2019-03-28T10:04:23.703Z,61.07
2019-03-28T10:06:02.191Z,59.67
2019-03-28T10:07:40.126Z,60.54
2019-03-28T10:09:18.091Z,60.52
2019-03-28T10:10:56.314Z,60.92
2019-03-28T10:12:35.915Z,62.04
2019-03-28T10:14:13.205Z,62.35
2019-03-28T10:15:51.662Z,62.39
2019-03-28T10:17:32.497Z,61.71
2019-03-28T10:19:09.868Z,61.81
2019-03-28T10:20:48.748Z,61.65
2019-03-28T10:22:26.245Z,60.96
2019-03-28T10:24:06.494Z,60.79
2019-03-28T10:25:46.084Z,60.32
2019-03-28T10:27:24.431Z,59.87
2019-03-28T10:29:04.389Z,59.63
2019-03-28T10:30:44.758Z,58.98
2019-03-28T10:32:23.013Z,60.09
2019-03-28T10:34:04.420Z,59.72
2019-03-28T10:35:41.764Z,59.65
2019-03-28T10:37:19.713Z,59.20
2019-03-28T10:38:57.935Z,57.14
2019-03-28T10:40:40.058Z,55.76
2019-03-28T10:42:20.605Z,54.28
2019-03-28T10:43:59.615Z,55.56
2019-03-28T10:45:38.482Z,52.13
2019-03-28T10:47:17.540Z,51.98
2019-03-28T10:48:55.746Z,51.29
2019-03-28T10:50:40.883Z,50.48
2019-03-28T10:52:12.592Z,47.84
2019-03-28T10:53:49.865Z,48.16
2019-03-28T10:55:26.888Z,46.45
2019-03-28T10:57:13.502Z,46.14
2019-03-28T10:58:42.775Z,45.33
2019-03-28T11:00:24.375Z,43.54
2019-03-28T11:01:58.774Z,43.33
2019-03-28T11:03:35.838Z,43.60
2019-03-28T11:05:12.784Z,43.16
2019-03-28T11:06:50.062Z,44.91
2019-03-28T11:08:28.234Z,45.19
2019-03-28T11:10:10.066Z,46.64
2019-03-28T11:11:49.254Z,45.45
2019-03-28T11:13:30.869Z,45.72
2019-03-28T11:15:17.015Z,42.00
2019-03-28T11:17:01.043Z,41.30
2019-03-28T11:19:18.045Z,40.35
2019-03-28T11:21:07.100Z,39.94
2019-03-28T11:23:02.129Z,39.73
2019-03-28T11:25:21.157Z,42.00
2019-03-28T11:27:26.391Z,43.31
2019-03-28T11:31:18.594Z,45.54
2019-03-28T11:33:06.581Z,44.72
2019-03-28T11:34:54.428Z,43.82
2019-03-28T11:36:44.686Z,42.92
2019-03-28T11:38:34.905Z,41.70
2019-03-28T11:40:24.637Z,39.90
2019-03-28T11:42:08.907Z,42.54
2019-03-28T11:43:52.924Z,39.93
2019-03-28T11:45:34.500Z,40.85
2019-03-28T11:47:24.505Z,40.57
2019-03-28T11:49:08.506Z,42.26
2019-03-28T11:50:49.688Z,39.40
2019-03-28T11:54:57.693Z,43.71
2019-03-28T11:57:08.507Z,42.14
2019-03-28T11:59:57.870Z,40.88
2019-03-28T12:02:00.595Z,44.13
2019-03-28T12:04:03.015Z,46.01
2019-03-28T12:06:13.554Z,43.87
2019-03-28T12:08:15.271Z,40.92
2019-03-28T12:10:20.153Z,43.01
2019-03-28T12:12:26.090Z,41.04
2019-03-28T12:14:08.849Z,45.33
2019-03-28T12:15:51.390Z,44.82
2019-03-28T12:17:29.051Z,45.01
2019-03-28T12:19:10.270Z,43.91
2019-03-28T12:20:47.801Z,40.22
2019-03-28T12:22:26.930Z,41.97
2019-03-28T12:24:05.247Z,40.15
2019-03-28T12:25:47.610Z,38.64
2019-03-28T12:27:27.007Z,38.30
2019-03-28T12:29:07.685Z,37.50
2019-03-28T12:30:46.269Z,40.82
2019-03-28T12:32:23.779Z,37.36
2019-03-28T12:34:01.433Z,36.85
2019-03-28T12:35:41.042Z,40.80
2019-03-28T12:37:18.831Z,40.46
2019-03-28T12:38:58.872Z,40.42
2019-03-28T12:40:47.596Z,39.47
2019-03-28T12:45:27.613Z,37.31
2019-03-28T12:47:41.808Z,37.23
2019-03-28T12:49:29.899Z,39.11
2019-03-28T12:51:14.951Z,33.62
2019-03-28T12:53:03.273Z,32.82
2019-03-28T12:54:51.347Z,31.17
2019-03-28T12:56:36.203Z,31.80
2019-03-28T12:58:13.815Z,29.17
2019-03-28T12:59:53.474Z,29.58
2019-03-28T13:01:30.230Z,28.90
2019-03-28T13:03:09.574Z,31.72
2019-03-28T13:04:48.136Z,32.88
2019-03-28T13:06:26.779Z,35.05
2019-03-28T16:48:15.879Z,69.97
2019-03-28T16:49:54.756Z,70.69
2019-03-28T16:51:33.389Z,71.38
2019-03-28T16:53:11.656Z,71.86
2019-03-28T16:54:50.904Z,71.69
2019-03-28T16:56:32.403Z,71.95
2019-03-28T16:58:11.798Z,74.14
2019-03-28T16:59:49.738Z,73.87
2019-03-28T17:01:30.793Z,74.39
2019-03-28T17:03:10.985Z,74.37
2019-03-28T17:04:47.895Z,74.37
2019-03-28T17:06:29.473Z,74.34
2019-03-28T17:08:07.003Z,74.24
2019-03-28T17:09:45.873Z,74.87
2019-03-28T17:11:24.005Z,75.04
2019-03-28T17:13:01.468Z,74.93
2019-03-28T17:14:39.083Z,73.99
2019-03-28T17:16:18.918Z,73.83
2019-03-28T17:17:55.958Z,74.36
2019-03-28T17:19:42.754Z,74.33
2019-03-28T17:21:25.588Z,74.30
2019-03-28T17:23:03.966Z,73.98
2019-03-28T17:24:44.371Z,73.67
2019-03-28T17:26:22.589Z,74.77
2019-03-28T17:27:59.772Z,75.42
2019-03-28T17:29:38.334Z,75.80
2019-03-28T17:31:16.276Z,76.41
2019-03-28T17:32:54.835Z,76.69
2019-03-28T17:34:35.212Z,76.94
2019-03-28T17:36:11.515Z,76.93
2019-03-28T17:37:55.719Z,75.88
2019-03-28T17:39:34.320Z,75.40
2019-03-28T17:41:14.270Z,75.14
2019-03-28T17:42:51.486Z,76.13
2019-03-28T17:44:30.038Z,76.71
2019-03-28T17:46:07.679Z,76.93
2019-03-28T17:47:45.517Z,77.49
2019-03-28T17:49:26.571Z,77.76
2019-03-28T17:51:04.672Z,79.07
2019-03-28T17:52:45.963Z,79.92
2019-03-28T17:54:24.483Z,80.15
2019-03-28T17:56:03.484Z,80.78
2019-03-28T17:57:41.461Z,80.90
2019-03-28T17:59:19.207Z,80.94
2019-03-28T18:01:04.520Z,80.57
2019-03-28T18:02:47.066Z,80.57
2019-03-28T18:04:26.506Z,80.99
2019-03-28T18:06:04.689Z,80.93
2019-03-28T18:07:44.732Z,80.70
2019-03-28T18:09:23.566Z,80.62
2019-03-28T18:11:06.135Z,80.68
2019-03-28T18:12:43.486Z,80.63
2019-03-28T18:14:23.643Z,80.70
2019-03-28T18:16:03.653Z,80.86
2019-03-28T18:17:45.463Z,80.82
2019-03-28T18:19:24.245Z,80.62
2019-03-28T18:21:03.099Z,80.72
2019-03-28T18:22:41.119Z,80.82
2019-03-28T18:24:21.134Z,80.89
2019-03-28T18:25:59.665Z,81.14
2019-03-28T18:27:41.136Z,81.20
2019-03-28T18:29:20.110Z,81.30
2019-03-28T18:30:58.196Z,81.19
2019-03-28T18:32:42.041Z,81.05
2019-03-28T18:34:18.927Z,80.87
2019-03-28T18:36:05.881Z,81.11
2019-03-28T18:37:48.868Z,81.17
2019-03-28T18:39:29.180Z,80.82
2019-03-28T18:41:08.701Z,80.01
2019-03-28T18:42:53.753Z,80.54
2019-03-28T18:44:36.655Z,80.99
2019-03-28T18:46:26.120Z,80.92
2019-03-28T18:48:09.173Z,80.94
2019-03-28T18:49:49.918Z,80.93
2019-03-28T18:51:28.531Z,80.73
2019-03-28T18:53:13.759Z,80.70
2019-03-28T18:54:54.673Z,80.63
2019-03-28T18:56:35.190Z,81.14
2019-03-28T18:58:20.359Z,80.89
2019-03-28T19:00:01.421Z,81.03
2019-03-28T19:01:40.146Z,81.39
2019-03-28T19:03:35.738Z,81.60
2019-03-28T19:05:20.411Z,81.73
2019-03-28T19:07:00.952Z,82.26
2019-03-28T19:08:59.195Z,83.60
2019-03-28T19:10:50.621Z,82.94
2019-03-28T19:12:30.611Z,82.86
2019-03-28T19:14:15.961Z,82.52
2019-03-28T19:16:06.040Z,82.46
2019-03-28T19:17:44.851Z,82.82
2019-03-28T19:19:23.348Z,82.74
2019-03-28T19:21:06.216Z,82.58
2019-03-28T19:22:51.625Z,82.63
2019-03-28T19:24:30.752Z,82.57
2019-03-28T19:26:10.780Z,82.40
2019-03-28T19:27:49.339Z,82.35
2019-03-28T19:29:29.536Z,82.33
2019-03-28T19:31:08.354Z,81.87
2019-03-28T19:32:48.771Z,81.47
2019-03-28T19:34:28.708Z,81.56
2019-03-28T19:36:08.603Z,81.76
2019-03-28T19:37:46.037Z,82.15
2019-03-28T19:39:33.387Z,82.50
2019-03-28T19:41:11.714Z,82.94
2019-03-28T19:42:49.554Z,83.23
2019-03-28T19:44:28.352Z,83.30
2019-03-28T19:46:07.143Z,83.44
2019-03-28T19:49:07.489Z,83.28
2019-03-28T19:50:50.205Z,83.27
2019-03-28T19:52:44.233Z,83.25
2019-03-28T19:54:28.520Z,83.06
2019-03-28T19:56:07.075Z,82.87
2019-03-28T19:57:44.963Z,83.17
2019-03-28T19:59:24.000Z,83.79
2019-03-28T20:01:04.950Z,83.90
2019-03-28T20:02:47.099Z,83.67
2019-03-28T20:04:27.471Z,83.04
2019-03-28T20:06:21.303Z,83.00
2019-03-28T20:07:47.658Z,82.85
2019-03-28T20:09:44.200Z,82.68
2019-03-28T20:11:22.786Z,82.77
2019-03-28T20:13:05.099Z,82.52
2019-03-28T20:14:42.653Z,82.80
2019-03-28T20:16:20.560Z,82.87
2019-03-28T20:17:59.811Z,82.75
2019-03-28T20:19:38.506Z,82.84
2019-03-28T20:21:16.652Z,83.04
2019-03-28T20:22:57.612Z,83.20
2019-03-28T20:24:35.797Z,83.28
2019-03-28T20:26:13.715Z,83.13
2019-03-28T20:27:52.165Z,82.85
2019-03-28T20:29:33.483Z,82.78
2019-03-28T20:31:13.869Z,82.77
2019-03-28T20:32:52.100Z,82.70
2019-03-28T20:34:32.392Z,82.86
2019-03-28T20:36:36.364Z,82.90
2019-03-28T20:37:55.443Z,83.40
2019-03-28T20:39:34.068Z,83.37
2019-03-28T20:41:14.532Z,83.54
2019-03-28T20:42:51.805Z,83.46
2019-03-28T20:44:31.222Z,83.32
2019-03-28T20:46:10.036Z,83.57
2019-03-28T20:47:50.883Z,83.84
2019-03-28T20:49:28.807Z,83.76
2019-03-28T20:51:09.375Z,83.40
2019-03-28T20:52:48.227Z,83.23
2019-03-28T20:54:28.304Z,83.20
2019-03-28T20:56:11.651Z,83.05
2019-03-28T20:57:49.242Z,82.95
2019-03-28T20:59:27.469Z,82.92
2019-03-28T21:01:05.271Z,82.83
2019-03-28T21:02:44.688Z,83.43
2019-03-28T21:04:31.090Z,83.45
2019-03-28T21:06:14.706Z,83.59
2019-03-28T21:07:46.325Z,83.42
2019-03-28T21:09:25.021Z,83.21
2019-03-28T21:11:05.259Z,83.07
2019-03-28T21:12:47.817Z,83.52
2019-03-28T21:14:27.963Z,83.80
2019-03-28T21:16:07.189Z,83.95
2019-03-28T21:17:45.702Z,84.14
2019-03-28T21:19:25.138Z,84.12
2019-03-28T21:21:02.937Z,83.98
2019-03-28T21:22:42.107Z,83.81
2019-03-28T21:24:20.116Z,83.80
2019-03-28T21:25:57.814Z,83.74
2019-03-28T21:27:35.798Z,83.48
2019-03-28T21:29:13.888Z,83.25
2019-03-28T21:30:53.434Z,83.26
2019-03-28T21:32:31.650Z,83.62
2019-03-28T21:34:11.460Z,83.63
2019-03-28T21:35:52.667Z,83.75
2019-03-28T21:37:32.044Z,84.07
2019-03-28T21:39:15.904Z,84.33
2019-03-28T21:40:54.520Z,84.29
2019-03-28T21:42:32.203Z,84.24
2019-03-28T21:44:10.257Z,84.33
2019-03-28T21:45:50.065Z,84.33
2019-03-28T21:47:27.859Z,84.20
2019-03-28T21:49:05.660Z,84.31
2019-03-28T21:50:45.942Z,84.11
2019-03-28T21:52:30.153Z,84.35
2019-03-28T21:54:07.945Z,84.14
2019-03-28T21:55:54.876Z,84.04
2019-03-28T21:57:28.949Z,83.77
2019-03-28T21:59:06.827Z,83.55
2019-03-28T22:00:44.647Z,83.83
2019-03-28T22:02:25.720Z,83.83
2019-03-28T22:04:04.487Z,83.74
2019-03-28T22:05:44.549Z,83.55
2019-03-28T22:07:23.701Z,83.32
2019-03-28T22:09:04.841Z,83.24
2019-03-28T22:10:44.903Z,83.26
2019-03-28T22:12:24.412Z,83.07
2019-03-28T22:14:02.393Z,83.08
2019-03-28T22:15:41.137Z,83.00
2019-03-28T22:17:21.116Z,83.28
2019-03-28T22:19:08.179Z,83.30
2019-03-28T22:21:06.971Z,83.06
2019-03-28T22:22:47.725Z,83.01
2019-03-28T22:24:27.082Z,82.92
2019-03-28T22:26:06.059Z,83.12
2019-03-28T22:27:43.274Z,83.07
2019-03-28T22:29:20.927Z,82.87
2019-03-28T22:31:01.330Z,82.79
2019-03-28T22:32:41.673Z,82.93
2019-03-28T22:34:19.554Z,82.97
2019-03-28T22:36:01.545Z,82.83
2019-03-28T22:37:42.820Z,83.06
2019-03-28T22:39:20.707Z,83.01
2019-03-28T22:40:59.242Z,83.02
2019-03-28T22:42:37.657Z,83.29
2019-03-28T22:44:16.434Z,83.41
2019-03-28T22:45:55.494Z,83.50
2019-03-28T22:47:35.713Z,83.65
2019-03-28T22:49:13.290Z,83.48
2019-03-28T22:50:51.086Z,83.23
2019-03-28T22:52:29.912Z,83.09
2019-03-28T22:54:11.144Z,83.61
2019-03-28T22:55:50.397Z,83.89
2019-03-28T22:57:27.920Z,83.88
2019-03-28T22:59:07.423Z,83.85
2019-03-28T23:00:46.616Z,83.78
2019-03-28T23:02:27.158Z,83.54
2019-03-28T23:04:06.015Z,83.32
2019-03-28T23:05:44.292Z,83.06
2019-03-28T23:07:24.805Z,83.17
2019-03-28T23:09:01.812Z,83.12
2019-03-28T23:10:41.052Z,83.10
2019-03-28T23:12:51.132Z,83.03
2019-03-28T23:14:49.334Z,82.88
2019-03-28T23:16:30.598Z,83.07
2019-03-28T23:18:09.095Z,83.69
2019-03-28T23:19:48.331Z,83.54
2019-03-28T23:21:27.109Z,83.49
2019-03-28T23:23:04.484Z,83.17
2019-03-28T23:24:44.546Z,83.15
2019-03-28T23:26:23.526Z,83.38
2019-03-28T23:28:02.633Z,83.61
2019-03-28T23:29:41.700Z,83.76
2019-03-28T23:31:20.865Z,83.59
2019-03-28T23:32:58.368Z,83.42
2019-03-28T23:34:37.911Z,83.26
2019-03-28T23:36:16.373Z,83.24
2019-03-28T23:37:55.392Z,83.12
2019-03-28T23:39:34.517Z,83.16
2019-03-28T23:41:12.309Z,83.38
2019-03-28T23:42:52.479Z,83.34
2019-03-28T23:44:31.562Z,83.34
2019-03-28T23:46:11.756Z,83.40
2019-03-28T23:47:49.805Z,83.97
2019-03-28T23:49:28.504Z,83.92
2019-03-28T23:51:06.112Z,83.37
2019-03-28T23:52:44.280Z,82.96
2019-03-28T23:54:23.108Z,82.78
2019-03-28T23:56:00.736Z,82.58
2019-03-28T23:57:39.888Z,83.56
2019-03-28T23:59:18.678Z,83.39
